Time;durP1;ratioP1;P1;durP2;ratioP2;P2;SDS_P1;SDS_P2;PMS_P1;PMS_P2;Temp;Humidity;BMP_temperature;BMP_pressure;BME280_temperature;BME280_humidity;BME280_pressure;Samples;Min_cycle;Max_cycle;Signal;HPM_P1;HPM_P2
2021/12/07 00:01:50;;;;;;;23.00;11.80;;;;;;;-0.49;88.09;97979.30;103457;1323;22580;-89
2021/12/07 00:04:17;;;;;;;22.30;12.20;;;;;;;-0.44;88.16;97981.22;103540;1321;138332;-90
2021/12/07 00:06:46;;;;;;;23.80;12.20;;;;;;;-0.43;87.95;97979.09;103548;1316;22593;-90
2021/12/07 00:09:17;;;;;;;22.20;12.60;;;;;;;-0.39;88.09;97979.75;103372;1316;138826;-90
2021/12/07 00:11:47;;;;;;;23.50;12.10;;;;;;;-0.35;87.71;97975.85;103666;1316;25328;-89
2021/12/07 00:14:23;;;;;;;22.10;12.20;;;;;;;-0.29;87.90;97964.61;103468;1320;25249;-89
2021/12/07 00:16:54;;;;;;;21.80;11.00;;;;;;;-0.28;87.32;97956.84;103559;1321;137939;-89
2021/12/07 00:19:22;;;;;;;20.30;11.00;;;;;;;-0.30;87.39;97951.75;103520;1316;24309;-89
2021/12/07 00:21:51;;;;;;;25.50;11.40;;;;;;;-0.34;87.06;97951.87;103555;1317;137713;-90
2021/12/07 00:24:18;;;;;;;25.80;13.10;;;;;;;-0.41;87.52;97948.17;103784;1323;25654;-89
2021/12/07 00:26:46;;;;;;;24.10;12.90;;;;;;;-0.40;87.36;97957.06;103535;1320;138626;-88
2021/12/07 00:29:16;;;;;;;22.20;12.30;;;;;;;-0.42;87.18;97966.38;103453;1316;22615;-90
2021/12/07 00:31:54;;;;;;;21.60;12.00;;;;;;;-0.40;87.54;97970.20;103430;1319;22660;-89
2021/12/07 00:37:02;;;;;;;23.60;12.50;;;;;;;-0.40;87.67;97966.12;103736;1320;23119;-89
2021/12/07 00:39:32;;;;;;;24.00;12.20;;;;;;;-0.44;87.37;97965.37;103542;1317;137723;-89
2021/12/07 00:42:00;;;;;;;22.30;11.80;;;;;;;-0.48;87.23;97970.17;103383;1318;25351;-89
2021/12/07 00:44:27;;;;;;;22.20;13.30;;;;;;;-0.53;87.31;97963.08;103476;1322;22682;-88
2021/12/07 00:46:57;;;;;;;27.00;13.10;;;;;;;-0.55;87.29;97959.80;103420;1323;138727;-89
2021/12/07 00:49:25;;;;;;;22.30;12.00;;;;;;;-0.58;87.39;97961.86;103419;1319;22596;-89
2021/12/07 00:51:52;;;;;;;18.80;10.50;;;;;;;-0.61;87.34;97963.44;103292;1320;138226;-89
2021/12/07 00:54:19;;;;;;;20.80;10.90;;;;;;;-0.65;87.26;97962.35;103498;1319;25364;-89
2021/12/07 00:56:47;;;;;;;25.70;13.70;;;;;;;-0.70;87.30;97968.66;103355;1323;138636;-88
2021/12/07 00:59:14;;;;;;;22.80;12.10;;;;;;;-0.71;87.48;97965.96;103655;1316;24317;-89
2021/12/07 01:01:48;;;;;;;24.30;13.00;;;;;;;-0.71;87.85;97962.18;103649;1322;22581;-89
2021/12/07 01:04:15;;;;;;;23.50;13.50;;;;;;;-0.72;87.74;97965.53;103624;1316;137942;-88
2021/12/07 01:07:12;;;;;;;24.20;12.50;;;;;;;-0.74;87.83;97962.39;103362;1318;22629;-88
2021/12/07 01:24:39;;;;;;;24.20;13.80;;;;;;;-0.78;87.84;97962.84;103232;1316;137779;-88
2021/12/07 01:26:16;;;;;;;28.40;15.50;;;;;;;-0.80;87.99;97947.89;103692;1316;22583;-87
2021/12/07 01:28:46;;;;;;;29.70;14.80;;;;;;;-0.79;88.02;97946.34;103837;1316;138565;-88
2021/12/07 01:31:21;;;;;;;26.30;12.60;;;;;;;-0.76;88.28;97948.55;103740;1316;22649;-87
2021/12/07 01:52:11;;;;;;;33.60;15.60;;;;;;;-0.89;88.76;97939.91;103295;1320;138018;-87
2021/12/07 02:00:12;;;;;;;33.20;15.40;;;;;;;-0.99;89.51;97938.36;103677;1316;23117;-87
2021/12/07 02:02:40;;;;;;;35.60;13.50;;;;;;;-1.03;89.45;97934.85;103384;1321;138892;-87
2021/12/07 02:05:09;;;;;;;36.00;15.70;;;;;;;-1.06;89.41;97927.57;103628;1316;22819;-88
2021/12/07 02:07:36;;;;;;;36.30;15.60;;;;;;;-1.07;89.45;97925.17;103567;1323;22606;-87
2021/12/07 02:10:10;;;;;;;31.60;13.40;;;;;;;-1.08;89.33;97924.95;103575;1320;138275;-87
2021/12/07 02:12:45;;;;;;;34.10;14.60;;;;;;;-1.07;89.72;97930.16;103540;1317;22597;-88
2021/12/07 02:15:17;;;;;;;27.70;13.60;;;;;;;-1.07;89.73;97931.05;103758;1316;138253;-87
2021/12/07 02:18:00;;;;;;;30.90;13.10;;;;;;;-1.08;89.75;97929.42;103261;1319;24316;-87
2021/12/07 02:20:30;;;;;;;39.20;15.60;;;;;;;-1.04;89.77;97933.73;103387;1320;22593;-87
2021/12/07 02:23:00;;;;;;;33.10;15.80;;;;;;;-1.01;89.61;97933.18;103375;1317;138312;-88
2021/12/07 02:25:32;;;;;;;35.10;16.10;;;;;;;-0.97;89.74;97924.87;103439;1316;25236;-87
2021/12/07 02:27:59;;;;;;;36.60;16.10;;;;;;;-0.98;89.58;97926.73;103154;1323;137805;-87
2021/12/07 02:30:43;;;;;;;34.40;16.20;;;;;;;-1.04;89.41;97923.98;103145;1321;22610;-88
2021/12/07 02:33:10;;;;;;;39.30;17.00;;;;;;;-1.00;89.77;97935.31;103302;1322;138644;-88
2021/12/07 02:35:54;;;;;;;35.50;15.40;;;;;;;-0.97;89.70;97938.77;103066;1319;24220;-88
2021/12/07 02:38:21;;;;;;;38.10;17.50;;;;;;;-0.96;89.85;97940.59;103153;1316;24234;-87
2021/12/07 02:40:49;;;;;;;39.60;17.00;;;;;;;-0.91;89.90;97937.77;103274;1323;138306;-87
2021/12/07 02:43:16;;;;;;;40.50;17.30;;;;;;;-0.88;90.19;97935.59;103153;1323;22639;-87
2021/12/07 02:45:44;;;;;;;40.80;17.50;;;;;;;-0.82;90.54;97937.15;103220;1320;139124;-88
2021/12/07 02:48:14;;;;;;;40.20;17.20;;;;;;;-0.77;89.94;97940.30;103240;1320;22577;-88
2021/12/07 02:50:41;;;;;;;38.20;18.20;;;;;;;-0.76;89.74;97937.11;103299;1318;139174;-88
2021/12/07 02:53:09;;;;;;;40.90;17.60;;;;;;;-0.74;89.73;97933.48;103472;1319;24301;-87
2021/12/07 02:55:37;;;;;;;37.60;17.20;;;;;;;-0.70;89.89;97929.58;103294;1319;24352;-88
2021/12/07 02:58:04;;;;;;;41.60;18.00;;;;;;;-0.68;89.60;97930.84;103231;1315;137766;-87
2021/12/07 03:00:41;;;;;;;44.70;18.20;;;;;;;-0.65;89.88;97930.27;103551;1320;24235;-87
2021/12/07 03:03:12;;;;;;;37.50;17.00;;;;;;;-0.61;89.57;97926.94;103675;1316;138907;-88
2021/12/07 03:05:56;;;;;;;39.00;18.80;;;;;;;-0.59;89.08;97929.02;103731;1316;22590;-87
2021/12/07 03:27:36;;;;;;;36.50;15.60;;;;;;;-0.54;88.71;97951.94;103290;1323;123804;-89
2021/12/07 03:30:07;;;;;;;40.00;16.40;;;;;;;-0.56;88.90;97954.40;103478;1316;22730;-89
2021/12/07 03:32:36;;;;;;;38.40;16.10;;;;;;;-0.60;88.72;97954.40;103524;1321;24565;-89
2021/12/07 03:35:04;;;;;;;29.10;14.60;;;;;;;-0.60;88.44;97955.14;103853;1319;138424;-88
2021/12/07 03:37:31;;;;;;;30.30;14.30;;;;;;;-0.62;88.18;97958.11;103562;1316;22689;-88
2021/12/07 03:39:59;;;;;;;29.90;15.00;;;;;;;-0.63;88.43;97956.81;103448;1323;137742;-89
2021/12/07 03:42:26;;;;;;;31.00;14.90;;;;;;;-0.62;88.78;97961.27;103493;1321;22597;-88
2021/12/07 03:44:54;;;;;;;36.00;16.80;;;;;;;-0.58;88.90;97962.41;103596;1319;138116;-88
2021/12/07 03:47:21;;;;;;;32.00;14.50;;;;;;;-0.52;89.07;97960.59;103651;1320;24221;-89
2021/12/07 03:49:48;;;;;;;32.20;15.90;;;;;;;-0.44;89.22;97963.52;103667;1316;25271;-89
2021/12/07 03:52:16;;;;;;;29.20;14.60;;;;;;;-0.39;88.41;97959.75;103276;1320;138129;-89
2021/12/07 03:54:43;;;;;;;29.50;15.50;;;;;;;-0.39;88.35;97956.41;102990;1321;22593;-89
2021/12/07 03:57:14;;;;;;;31.40;15.50;;;;;;;-0.38;88.55;97957.36;103355;1319;138245;-88
2021/12/07 03:59:41;;;;;;;30.60;15.70;;;;;;;-0.35;88.42;97961.48;103449;1319;22584;-88
2021/12/07 04:02:15;;;;;;;27.50;14.10;;;;;;;-0.34;88.29;97962.15;103698;1319;22590;-89
2021/12/07 04:04:42;;;;;;;27.60;14.40;;;;;;;-0.31;88.22;97964.30;103626;1316;138358;-90
2021/12/07 04:07:09;;;;;;;26.60;13.10;;;;;;;-0.25;88.53;97969.87;103664;1316;22581;-89
2021/12/07 04:09:37;;;;;;;29.20;14.10;;;;;;;-0.24;87.76;97969.48;103386;1316;138341;-89
2021/12/07 04:12:05;;;;;;;27.90;14.00;;;;;;;-0.26;87.50;97970.73;103485;1316;22561;-88
2021/12/07 04:14:32;;;;;;;31.80;13.90;;;;;;;-0.26;87.73;97973.86;103470;1320;22760;-89
2021/12/07 04:17:01;;;;;;;27.70;13.40;;;;;;;-0.25;87.61;97977.96;103484;1321;138732;-89
2021/12/07 04:19:28;;;;;;;25.40;13.40;;;;;;;-0.22;87.43;97980.73;103563;1317;24039;-90
2021/12/07 04:21:55;;;;;;;27.70;14.10;;;;;;;-0.25;87.22;97979.92;103025;1318;138247;-89
2021/12/07 04:24:27;;;;;;;27.50;13.80;;;;;;;-0.24;87.26;97981.82;103552;1318;24221;-90
2021/12/07 04:26:55;;;;;;;24.90;12.90;;;;;;;-0.29;86.77;97982.83;103401;1316;138418;-90
2021/12/07 04:29:22;;;;;;;26.30;13.30;;;;;;;-0.36;86.93;97978.67;103570;1316;22629;-89
2021/12/07 04:31:49;;;;;;;27.90;13.70;;;;;;;-0.32;87.22;97986.95;103833;1316;24416;-89
2021/12/07 04:34:16;;;;;;;27.00;13.20;;;;;;;-0.35;86.60;97988.55;103537;1315;138953;-89
2021/12/07 04:36:43;;;;;;;31.60;13.70;;;;;;;-0.40;86.68;97981.84;103510;1319;24224;-89
2021/12/07 04:39:10;;;;;;;27.30;12.60;;;;;;;-0.45;86.50;97982.23;103486;1319;138163;-90
2021/12/07 04:41:37;;;;;;;28.00;13.70;;;;;;;-0.50;87.04;97978.55;103789;1319;22561;-90
2021/12/07 04:44:04;;;;;;;29.30;15.20;;;;;;;-0.45;87.18;97979.52;103461;1319;24219;-90
2021/12/07 04:46:43;;;;;;;29.60;14.30;;;;;;;-0.44;87.20;97975.31;103360;1319;260537;-89
2021/12/07 04:49:49;;;;;;;29.00;13.30;;;;;;;-0.40;86.99;97973.53;103515;1322;22577;-91
2021/12/07 04:57:48;;;;;;;30.10;14.10;;;;;;;-0.50;86.63;97980.73;103456;1316;138008;-91
2021/12/07 05:00:24;;;;;;;33.70;13.50;;;;;;;-0.58;86.50;97983.05;103465;1321;23923;-90
2021/12/07 05:02:58;;;;;;;37.60;14.80;;;;;;;-0.65;87.02;97983.95;103497;1317;137934;-90
2021/12/07 05:05:34;;;;;;;33.40;14.30;;;;;;;-0.69;87.12;97987.23;103413;1319;22603;-91
2021/12/07 05:08:09;;;;;;;30.30;14.30;;;;;;;-0.68;87.40;97994.12;103475;1319;24219;-91
2021/12/07 05:38:04;;;;;;;37.10;15.20;;;;;;;-0.70;87.52;97989.92;103700;1316;22570;-89
2021/12/07 05:40:34;;;;;;;41.90;16.10;;;;;;;-0.76;87.45;97982.40;103457;1323;138855;-92
2021/12/07 05:43:04;;;;;;;34.40;15.80;;;;;;;-0.81;87.03;97979.85;103990;1316;22604;-91
2021/12/07 05:45:36;;;;;;;28.20;13.90;;;;;;;-0.81;87.49;97977.14;103769;1321;138366;-91
2021/12/07 05:48:07;;;;;;;30.90;13.90;;;;;;;-0.83;87.63;97979.17;103872;1319;23824;-92
2021/12/07 05:50:39;;;;;;;31.10;15.10;;;;;;;-0.85;87.56;97979.76;103863;1321;22527;-92
2021/12/07 05:53:10;;;;;;;34.20;15.70;;;;;;;-0.84;88.19;97980.10;104318;1316;137923;-91
2021/12/07 05:55:41;;;;;;;35.80;16.80;;;;;;;-0.79;88.51;97974.57;104275;1320;22602;-91
2021/12/07 05:58:12;;;;;;;38.50;15.90;;;;;;;-0.72;88.57;97979.09;104333;1316;137524;-92
2021/12/07 06:00:43;;;;;;;37.30;16.00;;;;;;;-0.70;87.65;97978.82;104667;1316;23465;-91
2021/12/07 06:03:57;;;;;;;32.70;15.30;;;;;;;-0.72;87.64;97983.14;104547;1321;138640;-93
2021/12/07 06:07:05;;;;;;;39.60;19.90;;;;;;;-0.70;87.96;97984.95;104587;1318;23317;-96
2021/12/07 06:10:11;;;;;;;36.10;15.60;;;;;;;-0.73;88.00;97982.36;105010;1316;137943;-92
2021/12/07 06:13:05;;;;;;;40.50;17.70;;;;;;;-0.67;87.73;97992.60;105266;1316;22660;-93
2021/12/07 06:16:31;;;;;;;34.90;15.40;;;;;;;-0.69;87.42;97992.48;105065;1319;138772;-93
2021/12/07 06:24:00;;;;;;;44.80;18.30;;;;;;;-0.59;88.06;97991.56;101943;1361;545564;-95
2021/12/07 06:30:23;;;;;;;52.20;19.10;;;;;;;-0.53;87.68;97992.29;101972;1357;25692;-93
2021/12/07 06:49:31;;;;;;;48.80;18.40;;;;;;;-0.73;87.34;98005.76;103888;1327;26015;-93
2021/12/07 06:52:19;;;;;;;44.90;17.70;;;;;;;-0.74;87.20;98011.21;104100;1324;22574;-94
2021/12/07 06:55:52;;;;;;;50.50;20.00;;;;;;;-0.75;87.63;98016.30;104052;1329;136951;-92
2021/12/07 07:03:15;;;;;;;78.10;21.30;;;;;;;-0.73;87.45;98022.00;104523;1322;22710;-94
2021/12/07 07:12:56;;;;;;;50.50;19.70;;;;;;;-0.68;87.97;98038.99;104185;1324;137126;-92
2021/12/07 07:19:05;;;;;;;45.10;18.00;;;;;;;-0.60;86.88;98033.43;104872;1324;137434;-94
2021/12/07 07:43:06;;;;;;;41.90;18.10;;;;;;;-0.61;86.87;98056.16;104803;1322;137659;-94
2021/12/07 08:07:47;;;;;;;41.90;18.20;;;;;;;-0.24;87.36;98044.60;104963;1323;137705;-86
2021/12/07 09:06:21;;;;;;;45.90;19.60;;;;;;;0.26;84.67;98050.35;98427;1314;10248268;-88
2021/12/07 09:12:56;;;;;;;40.10;16.90;;;;;;;0.38;84.34;98043.67;106043;1312;22319;-95
2021/12/07 10:25:33;;;;;;;54.80;23.10;;;;;;;0.33;83.86;98053.23;104713;1323;22668;-93
2021/12/07 10:32:18;;;;;;;47.80;21.00;;;;;;;0.35;83.54;98061.73;104014;1327;137612;-92
2021/12/07 10:34:50;;;;;;;46.30;20.80;;;;;;;0.34;84.09;98059.12;103878;1325;22639;-92
2021/12/07 10:37:38;;;;;;;48.40;20.60;;;;;;;0.39;84.24;98059.10;103699;1327;136945;-93
2021/12/07 10:40:24;;;;;;;52.20;21.80;;;;;;;0.40;83.72;98059.52;103695;1332;22526;-93
2021/12/07 10:42:54;;;;;;;53.90;21.80;;;;;;;0.36;83.37;98058.23;103572;1327;137062;-93
2021/12/07 10:45:27;;;;;;;49.60;22.30;;;;;;;0.35;84.09;98055.10;103326;1328;22739;-93
2021/12/07 10:47:56;;;;;;;47.50;21.60;;;;;;;0.37;83.61;98057.15;103051;1334;138259;-94
2021/12/07 10:50:26;;;;;;;49.40;20.90;;;;;;;0.38;83.44;98061.98;103451;1329;24341;-94
2021/12/07 10:52:57;;;;;;;48.50;20.70;;;;;;;0.41;83.45;98062.05;103835;1324;23031;-93
2021/12/07 10:55:26;;;;;;;48.30;21.20;;;;;;;0.42;83.49;98067.95;103579;1325;137175;-92
2021/12/07 10:58:18;;;;;;;49.40;21.20;;;;;;;0.42;83.39;98064.58;103678;1328;22423;-92
2021/12/07 11:01:07;;;;;;;46.50;20.30;;;;;;;0.40;82.94;98065.00;103834;1327;136829;-93
2021/12/07 11:04:22;;;;;;;53.00;20.60;;;;;;;0.34;82.91;98063.09;103777;1324;23352;-93
2021/12/07 11:15:26;;;;;;;;;;;;;;;0.50;83.41;98058.97;104342;1326;22688;-92
2021/12/07 11:18:50;;;;;;;51.70;21.40;;;;;;;0.46;82.99;98064.15;103867;1329;124153;-93
2021/12/07 11:21:51;;;;;;;61.10;23.10;;;;;;;0.35;82.86;98057.24;103706;1332;30231;-93
2021/12/07 11:24:58;;;;;;;60.20;23.70;;;;;;;0.33;83.15;98064.05;103779;1327;137657;-92
2021/12/07 11:30:36;;;;;;;56.60;21.40;;;;;;;0.36;83.45;98067.35;103762;1330;137094;-93
2021/12/07 11:33:47;;;;;;;61.90;23.80;;;;;;;0.33;83.39;98064.14;103723;1329;24057;-92
2021/12/07 11:36:20;;;;;;;61.80;25.20;;;;;;;0.32;83.03;98066.66;103777;1328;137170;-92
2021/12/07 11:38:50;;;;;;;52.00;20.70;;;;;;;0.28;83.34;98059.27;103668;1327;25530;-92
2021/12/07 11:41:32;;;;;;;58.20;24.00;;;;;;;0.25;83.12;98058.56;103430;1327;23354;-93
2021/12/07 11:44:05;;;;;;;61.60;23.90;;;;;;;0.23;83.48;98060.13;103269;1330;137897;-92
2021/12/07 11:46:45;;;;;;;55.40;22.60;;;;;;;0.27;83.68;98060.20;103376;1330;22669;-92
2021/12/07 11:49:20;;;;;;;55.90;22.50;;;;;;;0.29;83.59;98058.74;103398;1331;137393;-94
2021/12/07 11:51:51;;;;;;;58.40;22.90;;;;;;;0.26;83.65;98056.20;103316;1334;23523;-91
2021/12/07 11:54:22;;;;;;;55.90;22.60;;;;;;;0.26;83.65;98055.65;103534;1327;137583;-93
2021/12/07 11:56:50;;;;;;;58.50;23.10;;;;;;;0.27;83.83;98055.58;103456;1327;22627;-91
2021/12/07 11:59:18;;;;;;;60.50;24.70;;;;;;;0.19;83.21;98058.30;103368;1330;22667;-91
2021/12/07 12:01:47;;;;;;;58.70;21.90;;;;;;;0.13;83.19;98055.30;103415;1325;137859;-91
2021/12/07 12:04:15;;;;;;;;;;;;;;;0.10;83.22;98055.77;103247;1332;22801;-91
2021/12/07 12:06:47;;;;;;;51.40;21.20;;;;;;;0.10;83.44;98057.66;103351;1324;123332;-93
2021/12/07 12:09:15;;;;;;;49.10;20.50;;;;;;;0.08;83.60;98058.02;103541;1327;25250;-92
2021/12/07 12:12:00;;;;;;;52.60;21.90;;;;;;;0.09;83.69;98058.67;103299;1327;24687;-92
2021/12/07 12:14:57;;;;;;;55.90;22.30;;;;;;;0.09;83.52;98060.08;103523;1325;22638;-92
2021/12/07 12:17:52;;;;;;;53.20;21.40;;;;;;;0.05;83.49;98061.60;103359;1325;22825;-90
2021/12/07 12:20:44;;;;;;;58.60;22.10;;;;;;;0.04;83.66;98065.38;102977;1327;137901;-92
2021/12/07 12:23:17;;;;;;;51.90;21.40;;;;;;;0.04;83.73;98062.12;103413;1325;30600;-92
2021/12/07 12:25:44;;;;;;;61.70;23.40;;;;;;;0.06;83.70;98070.84;103420;1324;137242;-92
2021/12/07 12:28:29;;;;;;;60.10;23.40;;;;;;;0.07;84.00;98073.52;103317;1327;24354;-92
2021/12/07 12:31:18;;;;;;;56.20;22.10;;;;;;;0.11;84.10;98070.57;103574;1329;137023;-92
2021/12/07 12:33:52;;;;;;;55.50;21.90;;;;;;;0.12;83.72;98068.02;103467;1327;22521;-91
2021/12/07 12:36:24;;;;;;;63.90;23.70;;;;;;;0.08;83.44;98064.23;103637;1324;137246;-91
2021/12/07 12:39:21;;;;;;;;;;;;;;;0.05;83.27;98059.83;103402;1324;22661;-93
2021/12/07 12:42:00;;;;;;;56.00;21.10;;;;;;;0.01;83.26;98057.85;103841;1321;22538;-92
2021/12/07 12:44:35;;;;;;;50.90;20.60;;;;;;;-0.02;83.30;98061.96;103222;1333;137035;-92
2021/12/07 12:47:03;;;;;;;48.20;20.00;;;;;;;-0.05;83.44;98059.60;103612;1328;22645;-93
2021/12/07 12:49:42;;;;;;;53.40;22.30;;;;;;;-0.04;83.20;98066.85;103263;1328;137257;-92
2021/12/07 12:52:11;;;;;;;56.40;22.80;;;;;;;-0.03;83.49;98069.61;103304;1326;24233;-92
2021/12/07 12:54:49;;;;;;;60.10;22.90;;;;;;;-0.06;83.43;98074.16;103000;1331;137702;-93
2021/12/07 12:57:22;;;;;;;52.10;21.90;;;;;;;-0.07;83.66;98074.73;103132;1331;22597;-91
2021/12/07 12:59:49;;;;;;;60.50;24.60;;;;;;;-0.06;84.03;98073.65;103705;1329;22573;-91
2021/12/07 13:02:18;;;;;;;51.50;21.20;;;;;;;-0.04;83.71;98078.54;103271;1327;137531;-92
2021/12/07 13:05:05;;;;;;;55.80;21.50;;;;;;;-0.06;84.08;98078.77;103662;1327;22546;-92
2021/12/07 13:07:39;;;;;;;54.60;21.30;;;;;;;-0.04;84.18;98080.31;103244;1327;137297;-92
2021/12/07 13:10:12;;;;;;;61.50;22.80;;;;;;;-0.03;83.99;98086.73;103477;1329;24228;-93
2021/12/07 13:12:45;;;;;;;65.30;22.80;;;;;;;-0.06;83.92;98090.42;103580;1324;137580;-91
2021/12/07 13:15:15;;;;;;;55.10;22.20;;;;;;;-0.07;83.97;98086.64;103250;1331;22798;-91
2021/12/07 13:17:45;;;;;;;53.50;22.40;;;;;;;-0.10;84.14;98091.23;103171;1329;23577;-92
2021/12/07 13:20:18;;;;;;;57.00;20.90;;;;;;;-0.09;84.26;98095.14;103463;1329;137349;-92
2021/12/07 13:22:56;;;;;;;56.70;21.90;;;;;;;-0.09;84.08;98097.04;103357;1325;25401;-92
2021/12/07 13:25:48;;;;;;;54.80;21.90;;;;;;;-0.11;84.28;98096.44;103627;1324;137355;-93
2021/12/07 13:28:24;;;;;;;54.70;21.60;;;;;;;-0.14;84.20;98104.92;103564;1331;22616;-92
2021/12/07 13:31:00;;;;;;;64.30;22.60;;;;;;;-0.17;84.33;98108.21;103410;1331;138352;-92
2021/12/07 13:33:31;;;;;;;59.30;22.80;;;;;;;-0.23;84.09;98108.37;103401;1331;23495;-93
2021/12/07 13:36:35;;;;;;;60.40;21.60;;;;;;;-0.23;84.31;98118.14;103743;1326;22670;-91
2021/12/07 13:39:12;;;;;;;58.70;21.40;;;;;;;-0.27;84.95;98112.98;103443;1327;24242;-92
2021/12/07 13:41:48;;;;;;;60.30;21.80;;;;;;;-0.29;84.84;98113.70;103547;1324;22716;-92
2021/12/07 13:44:19;;;;;;;55.50;20.80;;;;;;;-0.32;85.06;98115.34;103368;1326;137651;-92
2021/12/07 13:46:51;;;;;;;69.20;23.60;;;;;;;-0.35;84.78;98121.25;103340;1331;22603;-93
2021/12/07 13:49:19;;;;;;;60.10;22.00;;;;;;;-0.39;85.01;98120.60;103019;1325;138395;-92
2021/12/07 13:51:46;;;;;;;65.30;22.50;;;;;;;-0.41;85.32;98123.38;103494;1324;23217;-92
2021/12/07 13:54:21;;;;;;;58.20;20.10;;;;;;;-0.40;85.34;98123.24;103215;1331;22781;-92
2021/12/07 13:56:53;;;;;;;66.60;23.40;;;;;;;-0.37;85.61;98123.02;103059;1331;137501;-92
2021/12/07 13:59:26;;;;;;;60.00;22.40;;;;;;;-0.36;85.29;98128.98;103903;1324;22779;-92
2021/12/07 14:01:57;;;;;;;65.60;23.70;;;;;;;-0.37;85.50;98126.12;103449;1327;137652;-92
2021/12/07 14:04:27;;;;;;;65.30;23.40;;;;;;;-0.38;85.36;98125.70;103496;1328;22543;-92
2021/12/07 14:06:55;;;;;;;62.70;22.00;;;;;;;-0.39;85.56;98123.88;103599;1329;138015;-92
2021/12/07 14:09:25;;;;;;;66.30;22.60;;;;;;;-0.38;85.38;98130.31;103579;1327;22608;-93
2021/12/07 14:12:07;;;;;;;69.50;22.40;;;;;;;-0.40;85.61;98131.45;103823;1327;22613;-93
2021/12/07 14:14:37;;;;;;;72.60;23.50;;;;;;;-0.44;85.61;98134.55;103569;1324;137525;-91
2021/12/07 14:17:04;;;;;;;71.10;22.90;;;;;;;-0.48;85.53;98136.27;103831;1324;22803;-91
2021/12/07 14:19:34;;;;;;;70.50;22.60;;;;;;;-0.49;85.37;98140.48;103802;1325;137817;-93
2021/12/07 14:22:03;;;;;;;72.50;24.30;;;;;;;-0.51;85.41;98145.59;104002;1330;25367;-93
2021/12/07 14:24:53;;;;;;;67.00;21.50;;;;;;;-0.50;85.76;98145.48;103904;1328;25074;-94
2021/12/07 14:27:30;;;;;;;59.90;21.10;;;;;;;-0.50;85.72;98151.73;104296;1324;137675;-95
2021/12/07 14:33:09;;;;;;;76.50;23.90;;;;;;;-0.56;85.83;98150.98;103862;1327;137297;-93
2021/12/07 14:48:24;;;;;;;63.30;21.60;;;;;;;-0.65;86.50;98159.56;103070;1328;23294;-86
2021/12/07 14:50:50;;;;;;;65.80;23.70;;;;;;;-0.43;88.05;98159.59;102871;1325;138102;-85
2021/12/07 16:00:31;;;;;;;;;;;;;;;;;;;;;
2021/12/07 17:02:53;;;;;;;56.10;20.80;;;;;;;-0.82;85.75;98206.24;104491;1327;23169;-93
2021/12/07 17:05:24;;;;;;;62.00;21.00;;;;;;;-0.86;85.88;98201.05;103012;1329;137640;-83
2021/12/07 17:07:52;;;;;;;61.00;21.90;;;;;;;-0.89;86.02;98199.45;102068;1334;22661;-91
2021/12/07 17:10:19;;;;;;;61.90;23.60;;;;;;;-0.89;86.06;98200.82;102480;1327;138392;-87
2021/12/07 17:12:46;;;;;;;60.40;21.90;;;;;;;-0.89;86.04;98200.88;102560;1327;25501;-88
2021/12/07 17:15:15;;;;;;;65.00;23.10;;;;;;;-0.90;86.12;98201.12;102736;1331;22611;-88
2021/12/07 17:17:42;;;;;;;56.70;23.10;;;;;;;-0.93;86.02;98202.19;102647;1331;137879;-88
2021/12/07 17:20:10;;;;;;;69.20;25.50;;;;;;;-0.92;86.15;98201.05;102572;1334;22609;-84
2021/12/07 17:22:37;;;;;;;67.60;26.90;;;;;;;-0.94;86.42;98201.09;102764;1326;138568;-85
2021/12/07 17:25:07;;;;;;;64.20;26.70;;;;;;;-0.95;86.17;98201.16;102624;1327;24113;-85
2021/12/07 17:27:34;;;;;;;61.70;23.30;;;;;;;-0.93;86.42;98204.89;102869;1327;26528;-85
2021/12/07 17:30:00;;;;;;;65.40;25.90;;;;;;;-0.93;86.21;98206.83;102781;1331;137873;-84
2021/12/07 17:32:27;;;;;;;63.80;25.00;;;;;;;-0.95;86.31;98206.63;103040;1327;23277;-85
2021/12/07 17:34:55;;;;;;;64.60;27.20;;;;;;;-0.97;86.07;98201.67;102897;1327;137576;-87
2021/12/07 17:37:22;;;;;;;72.30;28.00;;;;;;;-0.97;86.45;98201.67;102800;1327;22639;-85
2021/12/07 17:39:50;;;;;;;58.90;25.10;;;;;;;-0.97;86.26;98198.34;102909;1327;22736;-83
2021/12/07 17:42:18;;;;;;;57.70;25.20;;;;;;;-0.97;86.07;98202.58;103009;1332;138661;-86
2021/12/07 17:44:47;;;;;;;54.10;25.00;;;;;;;-0.98;86.17;98200.58;103332;1327;25686;-85
2021/12/07 17:47:13;;;;;;;62.00;25.30;;;;;;;-1.01;86.05;98200.42;102651;1327;137701;-84
2021/12/07 17:49:40;;;;;;;56.50;23.80;;;;;;;-1.03;86.18;98208.70;102447;1327;22643;-86
2021/12/07 17:52:06;;;;;;;58.80;23.90;;;;;;;-1.05;86.24;98207.17;102581;1327;139644;-84
2021/12/07 17:54:33;;;;;;;60.90;24.80;;;;;;;-1.06;86.15;98207.65;102911;1329;24306;-84
2021/12/07 17:57:00;;;;;;;58.20;24.20;;;;;;;-1.06;86.09;98203.20;102788;1327;24453;-84
2021/12/07 17:59:27;;;;;;;57.50;25.30;;;;;;;-1.07;85.99;98198.59;102854;1331;138019;-84
2021/12/07 18:01:55;;;;;;;56.40;22.90;;;;;;;-1.07;85.91;98199.64;102738;1324;23133;-83
2021/12/07 18:04:21;;;;;;;58.30;25.40;;;;;;;-1.10;85.88;98193.11;102667;1327;137751;-84
2021/12/07 18:06:48;;;;;;;65.70;25.20;;;;;;;-1.14;85.77;98191.46;103020;1327;25366;-85
2021/12/07 18:09:14;;;;;;;52.30;23.70;;;;;;;-1.19;86.13;98191.84;102784;1329;24445;-85
2021/12/07 18:11:40;;;;;;;60.10;26.20;;;;;;;-1.20;86.04;98195.47;102194;1327;138828;-85
2021/12/07 18:14:07;;;;;;;54.20;25.30;;;;;;;-1.20;86.08;98191.60;102489;1327;22600;-85
2021/12/07 18:16:33;;;;;;;59.80;26.10;;;;;;;-1.19;86.53;98193.60;102306;1328;138074;-83
2021/12/07 18:19:00;;;;;;;51.70;23.80;;;;;;;-1.12;86.31;98192.98;102708;1333;23505;-83
2021/12/07 18:21:26;;;;;;;64.70;24.90;;;;;;;-1.10;86.14;98200.09;102622;1327;22612;-83
2021/12/07 18:23:53;;;;;;;58.60;24.30;;;;;;;-1.10;86.10;98190.11;102803;1327;138250;-84
2021/12/07 18:26:20;;;;;;;59.80;23.20;;;;;;;-1.12;86.01;98196.06;102717;1327;25509;-83
2021/12/07 18:28:46;;;;;;;60.40;26.10;;;;;;;-1.17;85.89;98195.69;102567;1332;137586;-84
2021/12/07 18:31:12;;;;;;;55.40;24.40;;;;;;;-1.19;86.16;98199.81;102882;1324;25172;-84
2021/12/07 18:33:41;;;;;;;56.00;23.00;;;;;;;-1.19;86.25;98193.61;102880;1332;22587;-83
2021/12/07 18:36:08;;;;;;;51.20;21.40;;;;;;;-1.18;86.16;98187.63;102662;1333;138030;-83
2021/12/07 18:38:39;;;;;;;47.10;21.60;;;;;;;-1.18;85.99;98181.87;102614;1327;22725;-83
2021/12/07 18:41:13;;;;;;;50.00;22.60;;;;;;;-1.19;85.94;98185.89;102537;1332;137546;-83
2021/12/07 18:43:42;;;;;;;52.60;23.40;;;;;;;-1.19;86.13;98183.98;102645;1331;22616;-83
2021/12/07 18:46:09;;;;;;;51.30;22.40;;;;;;;-1.22;85.89;98186.41;102576;1328;138142;-83
2021/12/07 18:48:35;;;;;;;51.00;23.10;;;;;;;-1.24;85.86;98185.62;102706;1327;25368;-83
2021/12/07 18:51:04;;;;;;;51.60;22.50;;;;;;;-1.24;85.85;98190.42;102452;1330;25348;-82
2021/12/07 18:53:31;;;;;;;45.60;20.30;;;;;;;-1.26;85.83;98194.37;102726;1324;137726;-82
2021/12/07 18:55:58;;;;;;;49.20;21.10;;;;;;;-1.27;85.88;98191.34;102180;1327;22615;-82
2021/12/07 18:58:24;;;;;;;49.40;21.40;;;;;;;-1.28;85.88;98196.06;102780;1329;137755;-82
2021/12/07 19:00:54;;;;;;;57.50;24.80;;;;;;;-1.30;85.97;98195.90;102499;1327;22577;-82
2021/12/07 19:03:21;;;;;;;56.50;24.40;;;;;;;-1.30;86.19;98194.30;102823;1327;24263;-82
2021/12/07 19:05:50;;;;;;;55.00;22.90;;;;;;;-1.28;86.27;98199.50;102267;1330;138354;-80
2021/12/07 19:08:19;;;;;;;59.90;24.70;;;;;;;-1.25;86.41;98200.35;102223;1327;22649;-83
2021/12/07 19:10:48;;;;;;;52.10;22.90;;;;;;;-1.22;86.18;98204.27;102086;1327;137667;-82
2021/12/07 19:13:15;;;;;;;58.20;23.60;;;;;;;-1.25;85.93;98199.48;102567;1328;22764;-81
2021/12/07 19:15:56;;;;;;;60.10;23.30;;;;;;;-1.27;85.94;98199.04;102251;1327;139375;-82
2021/12/07 19:18:23;;;;;;;59.90;24.90;;;;;;;-1.29;86.09;98203.40;102370;1327;24259;-82
2021/12/07 19:20:49;;;;;;;61.10;26.00;;;;;;;-1.30;85.93;98203.39;102297;1327;22691;-82
2021/12/07 19:23:18;;;;;;;66.00;27.00;;;;;;;-1.31;85.97;98208.16;102094;1333;138493;-82